createdAt,value
2023-09-23T00:00:09.842Z,1014.13
2023-09-23T00:00:30.752Z,1014.12
2023-09-23T00:00:51.703Z,1014.13
2023-09-23T00:01:12.725Z,1014.15
2023-09-23T00:01:33.211Z,1014.17
2023-09-23T00:01:54.170Z,1014.18
2023-09-23T00:02:15.183Z,1014.17
2023-09-23T00:02:36.131Z,1014.17
2023-09-23T00:02:57.202Z,1014.18
2023-09-23T00:03:17.831Z,1014.17
2023-09-23T00:03:38.592Z,1014.18
2023-09-23T00:03:59.312Z,1014.20
2023-09-23T00:04:20.112Z,1014.20
2023-09-23T00:04:40.900Z,1014.22
2023-09-23T00:05:01.612Z,1014.22
2023-09-23T00:05:22.125Z,1014.24
2023-09-23T00:05:43.038Z,1014.25
2023-09-23T00:06:03.971Z,1014.27
2023-09-23T00:06:24.916Z,1014.29
2023-09-23T00:06:45.868Z,1014.28
2023-09-23T00:07:06.787Z,1014.28
2023-09-23T00:07:27.811Z,1014.30
2023-09-23T00:07:48.261Z,1014.31
2023-09-23T00:08:09.185Z,1014.30
2023-09-23T00:08:30.159Z,1014.31
2023-09-23T00:08:51.133Z,1014.31
2023-09-23T00:09:12.683Z,1014.31
2023-09-23T00:09:32.633Z,1014.29
2023-09-23T00:09:53.572Z,1014.30
2023-09-23T00:10:14.524Z,1014.29
2023-09-23T00:10:35.758Z,1014.31
2023-09-23T00:10:56.460Z,1014.31
2023-09-23T00:11:17.402Z,1014.27
2023-09-23T00:11:38.387Z,1014.30
2023-09-23T00:11:58.829Z,1014.30
2023-09-23T00:12:19.757Z,1014.30
2023-09-23T00:12:40.699Z,1014.28
2023-09-23T00:13:01.635Z,1014.31
2023-09-23T00:13:22.661Z,1014.30
2023-09-23T00:13:43.123Z,1014.32
2023-09-23T00:14:04.040Z,1014.33
2023-09-23T00:14:24.977Z,1014.34
2023-09-23T00:14:45.944Z,1014.34
2023-09-23T00:15:06.846Z,1014.35
2023-09-23T00:15:27.782Z,1014.36
2023-09-23T00:15:48.723Z,1014.36
2023-09-23T00:16:09.630Z,1014.36
2023-09-23T00:16:30.639Z,1014.38
2023-09-23T00:16:51.641Z,1014.36
2023-09-23T00:17:12.105Z,1014.36
2023-09-23T00:17:33.084Z,1014.36
2023-09-23T00:17:54.010Z,1014.35
2023-09-23T00:18:14.936Z,1014.33
2023-09-23T00:18:35.919Z,1014.33
2023-09-23T00:18:56.837Z,1014.30
2023-09-23T00:19:17.769Z,1014.30
2023-09-23T00:19:38.897Z,1014.31
2023-09-23T00:19:59.409Z,1014.30
2023-09-23T00:20:19.828Z,1014.28
2023-09-23T00:20:40.754Z,1014.28
2023-09-23T00:21:01.710Z,1014.27
2023-09-23T00:21:22.653Z,1014.26
2023-09-23T00:21:43.600Z,1014.26
2023-09-23T00:22:04.553Z,1014.26
2023-09-23T00:22:25.509Z,1014.26
2023-09-23T00:22:46.514Z,1014.25
2023-09-23T00:23:07.527Z,1014.26
2023-09-23T00:23:27.918Z,1014.25
2023-09-23T00:23:48.869Z,1014.27
2023-09-23T00:24:09.833Z,1014.28
2023-09-23T00:24:30.792Z,1014.29
2023-09-23T00:24:51.766Z,1014.24
2023-09-23T00:25:12.711Z,1014.22
2023-09-23T00:25:33.657Z,1014.21
2023-09-23T00:25:54.617Z,1014.22
2023-09-23T00:26:15.594Z,1014.23
2023-09-23T00:26:36.489Z,1014.23
2023-09-23T00:26:57.405Z,1014.23
2023-09-23T00:27:18.314Z,1014.23
2023-09-23T00:27:39.286Z,1014.22
2023-09-23T00:28:00.229Z,1014.24
2023-09-23T00:28:21.164Z,1014.25
2023-09-23T00:28:42.132Z,1014.26
2023-09-23T00:29:03.104Z,1014.26
2023-09-23T00:29:24.059Z,1014.25
2023-09-23T00:29:44.962Z,1014.27
2023-09-23T00:30:05.951Z,1014.28
2023-09-23T00:30:26.876Z,1014.26
2023-09-23T00:30:48.015Z,1014.26
2023-09-23T00:31:08.541Z,1014.25
2023-09-23T00:31:28.990Z,1014.27
2023-09-23T00:31:49.945Z,1014.26
2023-09-23T00:32:10.989Z,1014.24
2023-09-23T00:32:31.486Z,1014.24
2023-09-23T00:32:52.424Z,1014.24
2023-09-23T00:33:13.360Z,1014.24
2023-09-23T00:33:34.284Z,1014.23
2023-09-23T00:33:55.272Z,1014.23
2023-09-23T00:34:15.742Z,1014.23
2023-09-23T00:34:36.706Z,1014.23
2023-09-23T00:34:57.661Z,1014.22
2023-09-23T00:35:18.631Z,1014.22
2023-09-23T00:35:39.572Z,1014.22
2023-09-23T00:36:00.569Z,1014.22
2023-09-23T00:36:21.033Z,1014.22
2023-09-23T00:36:41.950Z,1014.20
2023-09-23T00:37:02.894Z,1014.20
2023-09-23T00:37:23.850Z,1014.19
2023-09-23T00:37:44.869Z,1014.20
2023-09-23T00:38:05.347Z,1014.20
2023-09-23T00:38:26.291Z,1014.21
2023-09-23T00:38:47.507Z,1014.21
2023-09-23T00:39:08.153Z,1014.21
2023-09-23T00:39:29.075Z,1014.22
2023-09-23T00:39:50.014Z,1014.23
2023-09-23T00:40:10.970Z,1014.22
2023-09-23T00:40:31.952Z,1014.21
2023-09-23T00:40:52.940Z,1014.22
2023-09-23T00:41:13.896Z,1014.25
2023-09-23T00:41:34.854Z,1014.23
2023-09-23T00:41:55.801Z,1014.25
2023-09-23T00:42:16.756Z,1014.23
2023-09-23T00:42:37.684Z,1014.25
2023-09-23T00:42:58.622Z,1014.24
2023-09-23T00:43:19.616Z,1014.24
2023-09-23T00:43:40.589Z,1014.24
2023-09-23T00:44:01.116Z,1014.25
2023-09-23T00:44:22.089Z,1014.25
2023-09-23T00:44:42.986Z,1014.26
2023-09-23T00:45:03.925Z,1014.28
2023-09-23T00:45:24.883Z,1014.27
2023-09-23T00:45:45.945Z,1014.27
2023-09-23T00:46:06.349Z,1014.28
2023-09-23T00:46:27.284Z,1014.28
2023-09-23T00:46:48.294Z,1014.29
2023-09-23T00:47:08.748Z,1014.30
2023-09-23T00:47:29.688Z,1014.31
2023-09-23T00:47:50.632Z,1014.31
2023-09-23T00:48:11.619Z,1014.32
2023-09-23T00:48:32.525Z,1014.32
2023-09-23T00:48:53.473Z,1014.33
2023-09-23T00:49:14.424Z,1014.33
2023-09-23T00:49:35.383Z,1014.32
2023-09-23T00:49:56.371Z,1014.33
2023-09-23T00:50:17.362Z,1014.34
2023-09-23T00:50:38.323Z,1014.36
2023-09-23T00:50:59.280Z,1014.37
2023-09-23T00:51:20.258Z,1014.38
2023-09-23T00:51:41.224Z,1014.38
2023-09-23T00:52:02.202Z,1014.37
2023-09-23T00:52:23.140Z,1014.39
2023-09-23T00:52:44.174Z,1014.38
2023-09-23T00:53:04.630Z,1014.38
2023-09-23T00:53:25.126Z,1014.38
2023-09-23T00:53:46.034Z,1014.40
2023-09-23T00:54:06.997Z,1014.39
2023-09-23T00:54:27.956Z,1014.41
2023-09-23T00:54:48.921Z,1014.42
2023-09-23T00:55:09.811Z,1014.43
2023-09-23T00:55:30.797Z,1014.45
2023-09-23T00:55:51.777Z,1014.46
2023-09-23T00:56:12.759Z,1014.51
2023-09-23T00:56:33.657Z,1014.48
2023-09-23T00:56:54.642Z,1014.48
2023-09-23T00:57:15.624Z,1014.48
2023-09-23T00:57:36.569Z,1014.46
2023-09-23T00:57:57.516Z,1014.47
2023-09-23T00:58:18.444Z,1014.47
2023-09-23T00:58:39.401Z,1014.45
2023-09-23T00:59:00.311Z,1014.44
2023-09-23T00:59:21.363Z,1014.45
2023-09-23T00:59:42.237Z,1014.44
2023-09-23T01:00:03.193Z,1014.44
2023-09-23T01:00:24.173Z,1014.46
2023-09-23T01:00:45.148Z,1014.47
2023-09-23T01:01:06.098Z,1014.47
2023-09-23T01:01:27.049Z,1014.47
2023-09-23T01:01:48.022Z,1014.46
2023-09-23T01:02:09.044Z,1014.47
2023-09-23T01:02:29.550Z,1014.45
2023-09-23T01:02:50.221Z,1014.45
2023-09-23T01:03:10.753Z,1014.46
2023-09-23T01:03:31.424Z,1014.49
2023-09-23T01:03:52.007Z,1014.50
2023-09-23T01:04:12.517Z,1014.51
2023-09-23T01:04:32.966Z,1014.52
2023-09-23T01:04:53.960Z,1014.53
2023-09-23T01:05:14.933Z,1014.54
2023-09-23T01:05:35.859Z,1014.55
2023-09-23T01:05:56.818Z,1014.53
2023-09-23T01:06:18.360Z,1014.51
2023-09-23T01:06:38.607Z,1014.50
2023-09-23T01:06:59.544Z,1014.51
2023-09-23T01:07:20.486Z,1014.49
2023-09-23T01:07:41.511Z,1014.51
2023-09-23T01:08:02.517Z,1014.50
2023-09-23T01:08:23.460Z,1014.49
2023-09-23T01:08:44.581Z,1014.50
2023-09-23T01:09:05.123Z,1014.50
2023-09-23T01:09:26.073Z,1014.52
2023-09-23T01:09:47.010Z,1014.52
2023-09-23T01:10:07.969Z,1014.51
2023-09-23T01:10:28.932Z,1014.53
2023-09-23T01:10:49.925Z,1014.54
2023-09-23T01:11:10.879Z,1014.55
2023-09-23T01:11:31.836Z,1014.57
2023-09-23T01:11:52.768Z,1014.57
2023-09-23T01:12:13.717Z,1014.57
2023-09-23T01:12:34.748Z,1014.56
2023-09-23T01:12:55.696Z,1014.58
2023-09-23T01:13:16.212Z,1014.58
2023-09-23T01:13:37.221Z,1014.59
2023-09-23T01:13:58.244Z,1014.60
2023-09-23T01:14:19.200Z,1014.61
2023-09-23T01:14:39.669Z,1014.60
2023-09-23T01:15:00.611Z,1014.57
2023-09-23T01:15:21.573Z,1014.60
2023-09-23T01:15:42.526Z,1014.60
2023-09-23T01:16:03.048Z,1014.61
2023-09-23T01:16:24.254Z,1014.60
2023-09-23T01:16:44.914Z,1014.62
2023-09-23T01:17:05.923Z,1014.61
2023-09-23T01:17:26.820Z,1014.63
2023-09-23T01:17:47.830Z,1014.63
2023-09-23T01:18:08.338Z,1014.64
2023-09-23T01:18:29.280Z,1014.65
2023-09-23T01:18:50.194Z,1014.67
2023-09-23T01:19:11.126Z,1014.68
2023-09-23T01:19:32.124Z,1014.69
2023-09-23T01:19:52.664Z,1014.69
2023-09-23T01:20:13.670Z,1014.69
2023-09-23T01:20:34.613Z,1014.71
2023-09-23T01:20:55.542Z,1014.71
2023-09-23T01:21:16.483Z,1014.73
2023-09-23T01:21:37.420Z,1014.74
2023-09-23T01:21:58.352Z,1014.77
2023-09-23T01:22:19.291Z,1014.77
2023-09-23T01:22:40.251Z,1014.79
2023-09-23T01:23:01.246Z,1014.79
2023-09-23T01:23:22.172Z,1014.81
2023-09-23T01:23:43.123Z,1014.82
2023-09-23T01:24:04.106Z,1014.83
2023-09-23T01:24:25.013Z,1014.83
2023-09-23T01:24:45.989Z,1014.85
2023-09-23T01:25:06.913Z,1014.84
2023-09-23T01:25:27.891Z,1014.84
2023-09-23T01:25:48.887Z,1014.86
2023-09-23T01:26:09.890Z,1014.86
2023-09-23T01:26:30.781Z,1014.87
2023-09-23T01:26:51.734Z,1014.87
2023-09-23T01:27:12.675Z,1014.86
2023-09-23T01:27:33.612Z,1014.86
2023-09-23T01:27:54.558Z,1014.86
2023-09-23T01:28:15.504Z,1014.88
2023-09-23T01:28:36.554Z,1014.88
2023-09-23T01:28:56.995Z,1014.88
2023-09-23T01:29:17.971Z,1014.87
2023-09-23T01:29:38.978Z,1014.88
2023-09-23T01:29:59.396Z,1014.88
2023-09-23T01:30:20.381Z,1014.88
2023-09-23T01:30:41.334Z,1014.89
2023-09-23T01:31:02.239Z,1014.92
2023-09-23T01:31:23.247Z,1014.90
2023-09-23T01:31:43.852Z,1014.92
2023-09-23T01:32:04.317Z,1014.93
2023-09-23T01:32:25.243Z,1014.93
2023-09-23T01:32:46.205Z,1014.94
2023-09-23T01:33:07.228Z,1014.93
2023-09-23T01:33:27.673Z,1014.92
2023-09-23T01:33:48.639Z,1014.95
2023-09-23T01:34:09.593Z,1014.95
2023-09-23T01:34:30.555Z,1014.97
2023-09-23T01:34:51.498Z,1014.97
2023-09-23T01:35:12.434Z,1014.99
2023-09-23T01:35:33.370Z,1014.99
2023-09-23T01:35:54.365Z,1015.00
2023-09-23T01:36:15.288Z,1015.01
2023-09-23T01:36:36.233Z,1015.00
2023-09-23T01:36:57.197Z,1015.03
2023-09-23T01:37:18.138Z,1015.02
2023-09-23T01:37:39.114Z,1015.06
2023-09-23T01:38:00.075Z,1015.06
2023-09-23T01:38:21.065Z,1015.05
2023-09-23T01:38:41.935Z,1015.05
2023-09-23T01:39:02.917Z,1015.06
2023-09-23T01:39:23.849Z,1015.05
2023-09-23T01:39:44.810Z,1015.06
2023-09-23T01:40:05.755Z,1015.08
2023-09-23T01:40:26.717Z,1015.08
2023-09-23T01:40:47.728Z,1015.07
2023-09-23T01:41:08.709Z,1015.10
2023-09-23T01:41:29.603Z,1015.10
2023-09-23T01:41:50.550Z,1015.09
2023-09-23T01:42:11.480Z,1015.11
2023-09-23T01:42:32.401Z,1015.12
2023-09-23T01:42:53.400Z,1015.13
2023-09-23T01:43:14.345Z,1015.11
2023-09-23T01:43:35.402Z,1015.13
2023-09-23T01:43:55.787Z,1015.15
2023-09-23T01:44:16.759Z,1015.16
2023-09-23T01:44:37.729Z,1015.19
2023-09-23T01:44:58.689Z,1015.19
2023-09-23T01:45:19.636Z,1015.18
2023-09-23T01:45:41.416Z,1015.19
2023-09-23T01:46:01.341Z,1015.21
2023-09-23T01:46:22.345Z,1015.22
2023-09-23T01:46:43.344Z,1015.21
2023-09-23T01:47:03.884Z,1015.24
2023-09-23T01:47:24.461Z,1015.25
2023-09-23T01:47:45.160Z,1015.25
2023-09-23T01:48:05.646Z,1015.27
2023-09-23T01:48:26.561Z,1015.27
2023-09-23T01:48:47.847Z,1015.27
2023-09-23T01:49:08.357Z,1015.26
2023-09-23T01:49:29.332Z,1015.26
2023-09-23T01:49:50.309Z,1015.29
2023-09-23T01:50:10.935Z,1015.30
2023-09-23T01:50:31.361Z,1015.30
2023-09-23T01:50:52.293Z,1015.30
2023-09-23T01:51:13.235Z,1015.31
2023-09-23T01:51:34.195Z,1015.29
2023-09-23T01:51:55.138Z,1015.32
2023-09-23T01:52:16.188Z,1015.32
2023-09-23T01:52:36.623Z,1015.33
2023-09-23T01:52:57.593Z,1015.35
2023-09-23T01:53:18.511Z,1015.33
2023-09-23T01:53:39.449Z,1015.34
2023-09-23T01:54:00.390Z,1015.35
2023-09-23T01:54:21.336Z,1015.35
2023-09-23T01:54:42.257Z,1015.34
2023-09-23T01:55:03.177Z,1015.37
2023-09-23T01:55:24.133Z,1015.37
2023-09-23T01:55:45.101Z,1015.36
2023-09-23T01:56:06.102Z,1015.37
2023-09-23T01:56:27.050Z,1015.39
2023-09-23T01:56:48.007Z,1015.39
2023-09-23T01:57:08.932Z,1015.40
2023-09-23T01:57:29.878Z,1015.41
2023-09-23T01:57:50.859Z,1015.44
2023-09-23T01:58:11.795Z,1015.46
2023-09-23T01:58:32.727Z,1015.48
2023-09-23T01:58:53.760Z,1015.50
2023-09-23T01:59:14.276Z,1015.52
2023-09-23T01:59:34.660Z,1015.53
2023-09-23T01:59:55.614Z,1015.52
2023-09-23T02:00:16.568Z,1015.52
2023-09-23T02:00:37.499Z,1015.52
2023-09-23T02:00:58.491Z,1015.52
2023-09-23T02:01:19.433Z,1015.53
2023-09-23T02:01:40.407Z,1015.53
2023-09-23T02:02:01.391Z,1015.54
2023-09-23T02:02:22.468Z,1015.55
2023-09-23T02:02:43.242Z,1015.53
2023-09-23T02:03:03.985Z,1015.52
2023-09-23T02:03:24.652Z,1015.52
2023-09-23T02:03:45.371Z,1015.52
2023-09-23T02:04:05.967Z,1015.51
2023-09-23T02:04:26.451Z,1015.52
2023-09-23T02:04:47.414Z,1015.52
2023-09-23T02:05:08.437Z,1015.52
2023-09-23T02:05:29.085Z,1015.52
2023-09-23T02:05:49.484Z,1015.51
2023-09-23T02:06:10.390Z,1015.54
2023-09-23T02:06:31.374Z,1015.57
2023-09-23T02:06:52.318Z,1015.58
2023-09-23T02:07:13.237Z,1015.58
2023-09-23T02:07:34.230Z,1015.60
2023-09-23T02:07:55.234Z,1015.61
2023-09-23T02:08:15.748Z,1015.61
2023-09-23T02:08:36.347Z,1015.59
2023-09-23T02:08:56.767Z,1015.62
2023-09-23T02:09:17.715Z,1015.63
2023-09-23T02:09:38.661Z,1015.64
2023-09-23T02:09:59.607Z,1015.66
2023-09-23T02:10:20.509Z,1015.69
2023-09-23T02:10:41.481Z,1015.70
2023-09-23T02:11:02.460Z,1015.72
2023-09-23T02:11:23.361Z,1015.74
2023-09-23T02:11:44.303Z,1015.73
2023-09-23T02:12:05.253Z,1015.76
2023-09-23T02:12:26.239Z,1015.77
2023-09-23T02:12:47.207Z,1015.76
2023-09-23T02:13:08.118Z,1015.76
2023-09-23T02:13:29.093Z,1015.77
2023-09-23T02:13:50.105Z,1015.76
2023-09-23T02:14:11.031Z,1015.75
2023-09-23T02:14:31.967Z,1015.76
2023-09-23T02:14:52.900Z,1015.77
2023-09-23T02:15:13.843Z,1015.76
2023-09-23T02:15:34.828Z,1015.76
2023-09-23T02:15:55.741Z,1015.77
2023-09-23T02:16:16.763Z,1015.74
2023-09-23T02:16:37.678Z,1015.76
2023-09-23T02:16:58.811Z,1015.79
2023-09-23T02:17:19.545Z,1015.79
2023-09-23T02:17:40.094Z,1015.79
2023-09-23T02:18:00.566Z,1015.79
2023-09-23T02:18:21.536Z,1015.79
2023-09-23T02:18:42.495Z,1015.79
2023-09-23T02:19:03.437Z,1015.80
2023-09-23T02:19:24.372Z,1015.80
2023-09-23T02:19:45.383Z,1015.82
2023-09-23T02:20:06.301Z,1015.79
2023-09-23T02:20:27.257Z,1015.81
2023-09-23T02:20:48.209Z,1015.82
2023-09-23T02:21:09.149Z,1015.83
2023-09-23T02:21:30.132Z,1015.85
2023-09-23T02:21:51.032Z,1015.83
2023-09-23T02:22:12.001Z,1015.84
2023-09-23T02:22:32.970Z,1015.83
2023-09-23T02:22:53.973Z,1015.82
2023-09-23T02:23:16.277Z,1015.83
2023-09-23T02:23:35.415Z,1015.83
2023-09-23T02:23:56.375Z,1015.82
2023-09-23T02:24:17.384Z,1015.84
2023-09-23T02:24:38.336Z,1015.84
2023-09-23T02:24:59.235Z,1015.84
2023-09-23T02:25:20.201Z,1015.86
2023-09-23T02:25:41.184Z,1015.87
2023-09-23T02:26:02.176Z,1015.86
2023-09-23T02:26:23.072Z,1015.86
2023-09-23T02:26:44.023Z,1015.87
2023-09-23T02:27:05.071Z,1015.87
2023-09-23T02:27:26.012Z,1015.88
2023-09-23T02:27:46.927Z,1015.87
2023-09-23T02:28:07.893Z,1015.90
2023-09-23T02:28:28.851Z,1015.90
2023-09-23T02:28:49.844Z,1015.88
2023-09-23T02:29:10.843Z,1015.89
2023-09-23T02:29:31.305Z,1015.90
2023-09-23T02:29:52.239Z,1015.90
2023-09-23T02:30:13.186Z,1015.87
2023-09-23T02:30:34.183Z,1015.87
2023-09-23T02:30:55.085Z,1015.87
2023-09-23T02:31:15.735Z,1015.87
2023-09-23T02:31:36.734Z,1015.87
2023-09-23T02:31:57.765Z,1015.87
2023-09-23T02:32:18.257Z,1015.88
2023-09-23T02:32:39.197Z,1015.88
2023-09-23T02:33:00.283Z,1015.86
2023-09-23T02:33:20.776Z,1015.84
2023-09-23T02:33:41.751Z,1015.85
2023-09-23T02:34:02.693Z,1015.84
2023-09-23T02:34:23.757Z,1015.84
2023-09-23T02:34:44.248Z,1015.86
2023-09-23T02:35:04.758Z,1015.87
2023-09-23T02:35:25.662Z,1015.85
2023-09-23T02:35:46.600Z,1015.87
2023-09-23T02:36:07.576Z,1015.88
2023-09-23T02:36:28.540Z,1015.90
2023-09-23T02:36:49.458Z,1015.92
2023-09-23T02:37:10.389Z,1015.92
2023-09-23T02:37:31.346Z,1015.91
2023-09-23T02:37:52.366Z,1015.93
2023-09-23T02:38:13.271Z,1015.95
2023-09-23T02:38:34.203Z,1015.96
2023-09-23T02:38:55.122Z,1015.96
2023-09-23T02:39:16.045Z,1015.98
2023-09-23T02:39:37.057Z,1015.98
2023-09-23T02:39:57.531Z,1015.99
2023-09-23T02:40:18.694Z,1015.97
2023-09-23T02:40:39.141Z,1015.99
2023-09-23T02:41:00.130Z,1015.99
2023-09-23T02:41:21.062Z,1015.98
2023-09-23T02:41:41.552Z,1015.97
2023-09-23T02:42:02.490Z,1015.99
2023-09-23T02:42:23.498Z,1015.98
2023-09-23T02:42:44.273Z,1015.98
2023-09-23T02:43:04.757Z,1015.98
2023-09-23T02:43:25.675Z,1015.97
2023-09-23T02:43:46.748Z,1015.99
2023-09-23T02:44:07.255Z,1015.99
2023-09-23T02:44:28.182Z,1015.99
2023-09-23T02:44:49.127Z,1015.98
2023-09-23T02:45:10.069Z,1015.98
2023-09-23T02:45:31.034Z,1015.99
2023-09-23T02:45:52.023Z,1015.99
2023-09-23T02:46:13.043Z,1016.00
2023-09-23T02:46:33.987Z,1015.99
2023-09-23T02:46:54.954Z,1016.01
2023-09-23T02:47:15.877Z,1016.00
2023-09-23T02:47:36.940Z,1016.00
2023-09-23T02:47:57.411Z,1016.00
2023-09-23T02:48:18.394Z,1016.03
2023-09-23T02:48:39.308Z,1016.04
2023-09-23T02:49:00.281Z,1016.04
2023-09-23T02:49:21.247Z,1016.06
2023-09-23T02:49:42.259Z,1016.06
2023-09-23T02:50:03.240Z,1016.08
2023-09-23T02:50:23.703Z,1016.09
2023-09-23T02:50:44.647Z,1016.09
2023-09-23T02:51:05.544Z,1016.11
2023-09-23T02:51:26.452Z,1016.12
2023-09-23T02:51:47.434Z,1016.14
2023-09-23T02:52:08.399Z,1016.15
2023-09-23T02:52:28.845Z,1016.15
2023-09-23T02:52:50.271Z,1016.15
2023-09-23T02:53:10.684Z,1016.14
2023-09-23T02:53:31.654Z,1016.14
2023-09-23T02:53:52.585Z,1016.14
2023-09-23T02:54:13.528Z,1016.15
2023-09-23T02:54:34.493Z,1016.16
2023-09-23T02:54:55.446Z,1016.14
2023-09-23T02:55:17.035Z,1016.14
2023-09-23T02:55:37.215Z,1016.14
2023-09-23T02:55:58.199Z,1016.13
2023-09-23T02:56:19.155Z,1016.12
2023-09-23T02:56:40.088Z,1016.13
2023-09-23T02:57:01.037Z,1016.13
2023-09-23T02:57:21.975Z,1016.12
2023-09-23T02:57:42.924Z,1016.13
2023-09-23T02:58:03.894Z,1016.12
2023-09-23T02:58:24.837Z,1016.14
2023-09-23T02:58:46.101Z,1016.15
2023-09-23T02:59:06.711Z,1016.15
2023-09-23T02:59:27.658Z,1016.16
2023-09-23T02:59:48.637Z,1016.16
2023-09-23T03:00:09.604Z,1016.16
2023-09-23T03:00:30.612Z,1016.15
2023-09-23T03:00:51.129Z,1016.13
2023-09-23T03:01:12.046Z,1016.14
2023-09-23T03:01:32.979Z,1016.16
2023-09-23T03:01:53.973Z,1016.16
2023-09-23T03:02:14.976Z,1016.17
2023-09-23T03:02:35.613Z,1016.18
2023-09-23T03:02:56.354Z,1016.17
2023-09-23T03:03:17.141Z,1016.18
2023-09-23T03:03:37.659Z,1016.18
2023-09-23T03:03:58.178Z,1016.17
2023-09-23T03:04:18.681Z,1016.16
2023-09-23T03:04:39.654Z,1016.15
2023-09-23T03:05:00.648Z,1016.16
2023-09-23T03:05:21.176Z,1016.15
2023-09-23T03:05:41.816Z,1016.14
2023-09-23T03:06:02.343Z,1016.14
2023-09-23T03:06:23.092Z,1016.14
2023-09-23T03:06:43.541Z,1016.13
2023-09-23T03:07:04.520Z,1016.15
2023-09-23T03:07:25.473Z,1016.15
2023-09-23T03:07:46.465Z,1016.15
2023-09-23T03:08:07.377Z,1016.17
2023-09-23T03:08:28.303Z,1016.15
2023-09-23T03:08:49.335Z,1016.16
2023-09-23T03:09:09.767Z,1016.15
2023-09-23T03:09:30.702Z,1016.15
2023-09-23T03:09:51.669Z,1016.15
2023-09-23T03:10:12.632Z,1016.14
2023-09-23T03:10:33.586Z,1016.14
2023-09-23T03:10:54.595Z,1016.16
2023-09-23T03:11:15.517Z,1016.17
2023-09-23T03:11:36.440Z,1016.15
2023-09-23T03:11:57.408Z,1016.17
2023-09-23T03:12:18.353Z,1016.18
2023-09-23T03:12:39.309Z,1016.20
2023-09-23T03:13:00.272Z,1016.20
2023-09-23T03:13:21.235Z,1016.19
2023-09-23T03:13:41.742Z,1016.22
2023-09-23T03:14:02.766Z,1016.21
2023-09-23T03:14:23.643Z,1016.22
2023-09-23T03:14:44.636Z,1016.24
2023-09-23T03:15:05.573Z,1016.23
2023-09-23T03:15:26.535Z,1016.25
2023-09-23T03:15:47.450Z,1016.25
2023-09-23T03:16:08.437Z,1016.27
2023-09-23T03:16:29.550Z,1016.27
2023-09-23T03:16:51.174Z,1016.27
2023-09-23T03:17:10.925Z,1016.27
2023-09-23T03:17:31.421Z,1016.26
2023-09-23T03:17:52.377Z,1016.26
2023-09-23T03:18:13.333Z,1016.26
2023-09-23T03:18:34.300Z,1016.27
2023-09-23T03:18:55.224Z,1016.28
2023-09-23T03:19:16.145Z,1016.29
2023-09-23T03:19:37.084Z,1016.28
2023-09-23T03:19:58.033Z,1016.27
2023-09-23T03:20:19.032Z,1016.28
2023-09-23T03:20:39.950Z,1016.28
2023-09-23T03:21:00.925Z,1016.29
2023-09-23T03:21:21.873Z,1016.29
2023-09-23T03:21:42.836Z,1016.30
2023-09-23T03:22:03.905Z,1016.29
2023-09-23T03:22:24.417Z,1016.28
2023-09-23T03:22:44.928Z,1016.29
2023-09-23T03:23:05.907Z,1016.28
2023-09-23T03:23:26.806Z,1016.28
2023-09-23T03:23:47.732Z,1016.29
2023-09-23T03:24:08.672Z,1016.28
2023-09-23T03:24:29.647Z,1016.29
2023-09-23T03:24:50.617Z,1016.28
2023-09-23T03:25:11.541Z,1016.29
2023-09-23T03:25:32.497Z,1016.29
2023-09-23T03:25:53.490Z,1016.28
2023-09-23T03:26:14.482Z,1016.30
2023-09-23T03:26:35.383Z,1016.29
2023-09-23T03:26:56.330Z,1016.28
2023-09-23T03:27:17.236Z,1016.27
2023-09-23T03:27:38.222Z,1016.29
2023-09-23T03:27:59.191Z,1016.26
2023-09-23T03:28:20.130Z,1016.26
2023-09-23T03:28:41.206Z,1016.26
2023-09-23T03:29:01.649Z,1016.25
2023-09-23T03:29:22.579Z,1016.25
2023-09-23T03:29:43.502Z,1016.26
2023-09-23T03:30:04.993Z,1016.25
2023-09-23T03:30:25.255Z,1016.25
2023-09-23T03:30:46.201Z,1016.24
2023-09-23T03:31:07.127Z,1016.25
2023-09-23T03:31:28.058Z,1016.26
2023-09-23T03:31:49.074Z,1016.27
2023-09-23T03:32:09.684Z,1016.25
2023-09-23T03:32:30.107Z,1016.25
2023-09-23T03:32:50.572Z,1016.25
2023-09-23T03:33:11.781Z,1016.26
2023-09-23T03:33:32.233Z,1016.25
2023-09-23T03:33:53.136Z,1016.26
2023-09-23T03:34:14.095Z,1016.26
2023-09-23T03:34:35.049Z,1016.25
2023-09-23T03:34:56.049Z,1016.26
2023-09-23T03:35:17.004Z,1016.25
2023-09-23T03:35:37.914Z,1016.25
2023-09-23T03:35:58.880Z,1016.25
2023-09-23T03:36:19.830Z,1016.26
2023-09-23T03:36:40.780Z,1016.26
2023-09-23T03:37:10.287Z,1016.24
2023-09-23T03:37:23.607Z,1016.25
2023-09-23T03:37:43.645Z,1016.27
2023-09-23T03:38:04.069Z,1016.27
2023-09-23T03:38:26.649Z,1016.25
2023-09-23T03:38:45.963Z,1016.25
2023-09-23T03:39:06.129Z,1016.27
2023-09-23T03:39:27.063Z,1016.25
2023-09-23T03:39:47.990Z,1016.26
2023-09-23T03:40:08.953Z,1016.27
2023-09-23T03:40:29.909Z,1016.28
2023-09-23T03:40:50.872Z,1016.25
2023-09-23T03:41:11.817Z,1016.26
2023-09-23T03:41:32.737Z,1016.27
2023-09-23T03:41:53.682Z,1016.28
2023-09-23T03:42:14.668Z,1016.28
2023-09-23T03:42:35.677Z,1016.29
2023-09-23T03:42:56.598Z,1016.31
2023-09-23T03:43:17.539Z,1016.30
2023-09-23T03:43:38.484Z,1016.32
2023-09-23T03:43:59.452Z,1016.32
2023-09-23T03:44:20.404Z,1016.32
2023-09-23T03:44:41.300Z,1016.33
2023-09-23T03:45:02.241Z,1016.33
2023-09-23T03:45:23.201Z,1016.35
2023-09-23T03:45:44.183Z,1016.34
2023-09-23T03:46:05.158Z,1016.34
2023-09-23T03:46:26.143Z,1016.34
2023-09-23T03:46:47.097Z,1016.34
2023-09-23T03:47:08.088Z,1016.36
2023-09-23T03:47:29.035Z,1016.36
2023-09-23T03:47:50.013Z,1016.36
2023-09-23T03:48:10.965Z,1016.37
2023-09-23T03:48:32.323Z,1016.38
2023-09-23T03:48:52.757Z,1016.36
2023-09-23T03:49:13.703Z,1016.35
2023-09-23T03:49:34.675Z,1016.35
2023-09-23T03:49:55.645Z,1016.36
2023-09-23T03:50:16.584Z,1016.36
2023-09-23T03:50:37.501Z,1016.35
2023-09-23T03:50:58.473Z,1016.34
2023-09-23T03:51:19.404Z,1016.35
2023-09-23T03:51:40.375Z,1016.37
2023-09-23T03:52:01.316Z,1016.36
2023-09-23T03:52:22.279Z,1016.35
2023-09-23T03:52:43.277Z,1016.37
2023-09-23T03:53:04.239Z,1016.35
2023-09-23T03:53:25.362Z,1016.38
2023-09-23T03:53:46.209Z,1016.38
2023-09-23T03:54:06.849Z,1016.39
2023-09-23T03:54:27.773Z,1016.41
2023-09-23T03:54:48.699Z,1016.41
2023-09-23T03:55:09.681Z,1016.40
2023-09-23T03:55:30.638Z,1016.38
2023-09-23T03:55:51.669Z,1016.39
2023-09-23T03:56:12.157Z,1016.39
2023-09-23T03:56:33.038Z,1016.40
2023-09-23T03:56:54.020Z,1016.41
2023-09-23T03:57:14.986Z,1016.42
2023-09-23T03:57:35.956Z,1016.42
2023-09-23T03:57:56.906Z,1016.44
2023-09-23T03:58:17.879Z,1016.44
2023-09-23T03:58:38.829Z,1016.44
2023-09-23T03:58:59.792Z,1016.44
2023-09-23T03:59:20.770Z,1016.44
2023-09-23T03:59:41.739Z,1016.45
2023-09-23T04:00:02.673Z,1016.45
2023-09-23T04:00:23.667Z,1016.46
2023-09-23T04:00:44.093Z,1016.47
2023-09-23T04:01:05.043Z,1016.48
2023-09-23T04:01:25.992Z,1016.48
2023-09-23T04:01:47.117Z,1016.48
2023-09-23T04:02:07.622Z,1016.48
2023-09-23T04:02:28.630Z,1016.50
2023-09-23T04:02:49.110Z,1016.50
2023-09-23T04:03:09.614Z,1016.51
2023-09-23T04:03:30.173Z,1016.53
2023-09-23T04:03:51.323Z,1016.52
2023-09-23T04:04:11.853Z,1016.54
2023-09-23T04:04:32.466Z,1016.54
2023-09-23T04:04:53.443Z,1016.55
2023-09-23T04:05:14.429Z,1016.56
2023-09-23T04:05:35.397Z,1016.58
2023-09-23T04:05:55.852Z,1016.61
2023-09-23T04:06:16.802Z,1016.61
2023-09-23T04:06:37.771Z,1016.61
2023-09-23T04:06:58.761Z,1016.62
2023-09-23T04:07:19.639Z,1016.65
2023-09-23T04:07:40.557Z,1016.64
2023-09-23T04:08:01.553Z,1016.66
2023-09-23T04:08:22.515Z,1016.68
2023-09-23T04:08:43.455Z,1016.67
2023-09-23T04:09:04.397Z,1016.66
2023-09-23T04:09:25.387Z,1016.67
2023-09-23T04:09:46.347Z,1016.67
2023-09-23T04:10:07.288Z,1016.68
2023-09-23T04:10:28.254Z,1016.69
2023-09-23T04:10:49.275Z,1016.71
2023-09-23T04:11:09.805Z,1016.71
2023-09-23T04:11:30.741Z,1016.74
2023-09-23T04:11:52.714Z,1016.75
2023-09-23T04:12:12.281Z,1016.77
2023-09-23T04:12:33.292Z,1016.78